Time;durP1;ratioP1;P1;durP2;ratioP2;P2;SDS_P1;SDS_P2;PMS_P1;PMS_P2;Temp;Humidity;BMP_temperature;BMP_pressure;BME280_temperature;BME280_humidity;BME280_pressure;Samples;Min_cycle;Max_cycle;Signal;HPM_P1;HPM_P2
2023/10/01 00:01:40;;;;;;;12.85;3.85;;;;;;;14.07;100.00;102431.50;5031880;28;20033;-81
2023/10/01 00:04:07;;;;;;;17.17;3.92;;;;;;;14.07;100.00;102432.34;5031774;28;20035;-82
2023/10/01 00:06:34;;;;;;;17.20;3.88;;;;;;;14.07;100.00;102437.72;5031493;28;20025;-83
2023/10/01 00:09:00;;;;;;;13.57;3.47;;;;;;;14.08;100.00;102434.06;5031587;28;20034;-83
2023/10/01 00:11:27;;;;;;;17.23;4.22;;;;;;;14.08;100.00;102427.88;5031297;28;20087;-82
2023/10/01 00:13:52;;;;;;;11.77;3.33;;;;;;;14.09;100.00;102437.59;5031351;28;20044;-82
2023/10/01 00:16:18;;;;;;;15.00;4.00;;;;;;;14.11;100.00;102427.63;5030813;28;20088;-82
2023/10/01 00:18:44;;;;;;;13.27;3.67;;;;;;;14.12;100.00;102429.31;5031148;28;20025;-81
2023/10/01 00:21:10;;;;;;;8.27;2.95;;;;;;;14.11;100.00;102435.66;5013325;28;20037;-82
2023/10/01 00:23:35;;;;;;;10.98;3.20;;;;;;;14.10;100.00;102432.09;5031317;28;20033;-82
2023/10/01 00:26:00;;;;;;;6.82;2.80;;;;;;;14.07;100.00;102426.16;5013130;28;20353;-82
2023/10/01 00:28:26;;;;;;;12.45;3.17;;;;;;;14.04;100.00;102427.25;5030970;28;20025;-82
2023/10/01 00:30:51;;;;;;;8.82;2.83;;;;;;;14.04;100.00;102421.91;5031138;28;20029;-82
2023/10/01 00:33:17;;;;;;;11.40;3.05;;;;;;;14.02;100.00;102421.19;5013095;28;20295;-82
2023/10/01 00:35:42;;;;;;;11.77;3.00;;;;;;;13.99;100.00;102415.19;5030620;28;20350;-81
2023/10/01 00:38:08;;;;;;;8.50;2.97;;;;;;;13.96;100.00;102408.28;5013037;28;20066;-82
2023/10/01 00:40:35;;;;;;;12.02;3.35;;;;;;;13.98;100.00;102405.50;5031068;28;20030;-82
2023/10/01 00:43:03;;;;;;;12.82;3.47;;;;;;;14.01;100.00;102405.25;5012966;28;20095;-82
2023/10/01 00:45:29;;;;;;;13.35;3.75;;;;;;;14.05;100.00;102407.56;5031065;28;20033;-82
2023/10/01 00:47:55;;;;;;;12.32;3.42;;;;;;;14.09;100.00;102410.81;5030976;28;20047;-82
2023/10/01 00:50:21;;;;;;;13.68;3.25;;;;;;;14.12;100.00;102413.25;5030559;28;20061;-81
2023/10/01 00:52:49;;;;;;;10.80;3.25;;;;;;;14.14;100.00;102411.31;5032466;28;20050;-81
2023/10/01 00:55:16;;;;;;;9.23;2.85;;;;;;;14.11;100.00;102414.25;5030707;28;20076;-81
2023/10/01 00:57:42;;;;;;;16.10;3.80;;;;;;;14.10;100.00;102413.38;5030277;28;20377;-82
2023/10/01 01:00:09;;;;;;;14.55;3.38;;;;;;;14.10;100.00;102409.84;5030942;28;20029;-82
2023/10/01 01:02:38;;;;;;;14.52;3.33;;;;;;;14.10;100.00;102402.66;5030494;28;20433;-82
2023/10/01 01:05:20;;;;;;;11.65;2.90;;;;;;;14.13;100.00;102401.56;5030609;28;20029;-82
2023/10/01 01:07:48;;;;;;;;;;;;;;;14.15;100.00;102398.78;5013401;28;20040;-82
2023/10/01 01:10:18;;;;;;;12.70;3.08;;;;;;;14.18;100.00;102395.84;5030503;28;19913;-82
2023/10/01 01:12:54;;;;;;;12.55;3.38;;;;;;;14.22;100.00;102394.63;5030731;28;20025;-81
2023/10/01 01:15:21;;;;;;;11.15;3.30;;;;;;;14.25;100.00;102391.69;5030299;28;20353;-82
2023/10/01 01:17:50;;;;;;;14.40;3.17;;;;;;;14.25;100.00;102389.84;5030181;28;20401;-82
2023/10/01 01:20:16;;;;;;;17.13;3.78;;;;;;;14.24;100.00;102382.81;5030593;28;20025;-82
2023/10/01 01:22:51;;;;;;;8.52;3.50;;;;;;;14.25;100.00;102381.00;5030486;28;20029;-83
2023/10/01 01:25:20;;;;;;;13.98;4.32;;;;;;;14.25;100.00;102389.84;5012271;28;20362;-82
2023/10/01 01:27:46;;;;;;;9.60;3.17;;;;;;;14.27;100.00;102387.06;5030839;28;20395;-82
2023/10/01 01:30:18;;;;;;;10.43;3.08;;;;;;;14.31;100.00;102382.31;5033988;28;20116;-82
2023/10/01 01:32:43;;;;;;;13.10;3.60;;;;;;;14.33;100.00;102372.31;5033922;28;20095;-82
2023/10/01 01:35:09;;;;;;;10.52;3.50;;;;;;;14.35;100.00;102370.38;5034087;28;20029;-82
2023/10/01 01:37:46;;;;;;;13.20;3.60;;;;;;;14.35;100.00;102371.22;5034084;28;20036;-81
2023/10/01 01:40:25;;;;;;;10.27;3.72;;;;;;;14.34;100.00;102371.34;5034186;28;20153;-82
2023/10/01 01:42:56;;;;;;;13.60;3.78;;;;;;;14.31;100.00;102379.63;5016579;28;20033;-81
2023/10/01 01:45:28;;;;;;;12.17;3.60;;;;;;;14.28;100.00;102370.03;5034923;28;20025;-82
2023/10/01 01:47:53;;;;;;;10.98;3.60;;;;;;;14.29;100.00;102371.72;5034771;28;20266;-81
2023/10/01 01:50:26;;;;;;;11.82;3.90;;;;;;;14.28;100.00;102372.69;5034334;28;20021;-82
2023/10/01 01:52:52;;;;;;;12.05;3.70;;;;;;;14.29;100.00;102369.06;5034490;28;20045;-81
2023/10/01 01:55:29;;;;;;;11.45;3.78;;;;;;;14.28;100.00;102365.50;5034341;28;20033;-81
2023/10/01 01:58:15;;;;;;;15.82;4.70;;;;;;;14.27;100.00;102371.00;5034255;28;20385;-82
2023/10/01 02:01:01;;;;;;;13.65;4.35;;;;;;;14.27;100.00;102366.50;5034388;28;20311;-81
2023/10/01 02:03:33;;;;;;;14.30;4.60;;;;;;;14.26;100.00;102364.78;5034546;28;20336;-82
2023/10/01 02:06:04;;;;;;;11.02;4.28;;;;;;;14.29;100.00;102364.53;5034020;28;20038;-82
2023/10/01 02:08:44;;;;;;;;;;;;;;;14.28;100.00;102365.50;5034596;28;20025;-82
2023/10/01 02:11:10;;;;;;;12.60;4.05;;;;;;;14.27;100.00;102363.84;5033485;28;19936;-82
2023/10/01 02:13:40;;;;;;;18.33;3.88;;;;;;;14.27;100.00;102360.28;5015660;28;20025;-82
2023/10/01 02:19:35;;;;;;;13.68;4.00;;;;;;;14.28;100.00;102370.88;5033780;28;20048;-84
2023/10/01 02:21:59;;;;;;;18.40;4.07;;;;;;;14.31;100.00;102364.41;5019028;28;20045;-81
2023/10/01 02:25:13;;;;;;;15.07;4.63;;;;;;;14.31;100.00;102352.88;5033285;28;20025;-80
2023/10/01 02:27:18;;;;;;;17.85;4.28;;;;;;;14.33;100.00;102349.09;5022263;28;20033;-81
2023/10/01 02:32:29;;;;;;;17.75;5.07;;;;;;;14.35;100.00;102346.28;5033562;28;20449;-81
2023/10/01 02:34:57;;;;;;;14.63;4.55;;;;;;;14.35;100.00;102349.81;5033315;28;20107;-81
2023/10/01 02:37:29;;;;;;;15.77;4.30;;;;;;;14.36;100.00;102353.31;5033100;28;20026;-80
2023/10/01 02:40:12;;;;;;;22.05;5.55;;;;;;;14.35;100.00;102346.28;5032417;28;20373;-81
2023/10/01 02:42:38;;;;;;;15.90;4.20;;;;;;;14.35;100.00;102357.00;5032885;28;20319;-79
2023/10/01 02:45:30;;;;;;;16.17;4.32;;;;;;;14.34;100.00;102356.13;5032804;28;20034;-81
2023/10/01 02:48:13;;;;;;;14.60;4.60;;;;;;;14.35;100.00;102351.66;5032704;28;20548;-81
2023/10/01 02:50:36;;;;;;;17.05;5.32;;;;;;;14.34;100.00;102345.41;5032549;28;20079;-80
2023/10/01 02:53:03;;;;;;;13.77;5.03;;;;;;;14.35;100.00;102349.81;5032102;28;20053;-81
2023/10/01 02:55:29;;;;;;;18.52;5.05;;;;;;;14.35;100.00;102355.16;5014630;28;20108;-81
2023/10/01 02:58:02;;;;;;;15.43;4.43;;;;;;;14.35;100.00;102343.63;5032578;28;20112;-82
2023/10/01 03:00:31;;;;;;;14.45;5.15;;;;;;;14.36;100.00;102358.69;5032654;28;20033;-81
2023/10/01 03:02:59;;;;;;;16.10;4.85;;;;;;;14.35;100.00;102347.13;5032922;28;20111;-81
2023/10/01 03:05:31;;;;;;;11.15;5.13;;;;;;;14.36;100.00;102351.50;5032120;28;20063;-81
2023/10/01 03:08:03;;;;;;;14.55;4.97;;;;;;;14.36;100.00;102345.28;5032342;28;20149;-81
2023/10/01 03:10:31;;;;;;;22.95;5.35;;;;;;;14.35;100.00;102341.78;5032699;28;20105;-81
2023/10/01 03:12:59;;;;;;;14.65;5.70;;;;;;;14.34;100.00;102340.06;5014649;28;20105;-80
2023/10/01 03:15:29;;;;;;;18.33;5.60;;;;;;;14.36;100.00;102337.25;5032067;28;20112;-81
2023/10/01 03:17:57;;;;;;;11.30;4.93;;;;;;;14.36;100.00;102340.81;5032109;28;20021;-81
2023/10/01 03:23:05;;;;;;;14.25;5.82;;;;;;;14.35;100.00;102341.78;5032253;28;20061;-82
2023/10/01 03:25:40;;;;;;;14.48;5.10;;;;;;;14.34;100.00;102340.06;5031805;28;20033;-82
2023/10/01 03:28:25;;;;;;;13.55;4.80;;;;;;;14.34;100.00;102339.22;5032394;28;20029;-82
2023/10/01 03:31:08;;;;;;;19.15;5.78;;;;;;;14.37;100.00;102334.44;5031794;28;20124;-82
2023/10/01 03:33:40;;;;;;;13.32;4.80;;;;;;;14.40;100.00;102334.19;5031961;28;20056;-81
2023/10/01 03:36:11;;;;;;;16.95;5.55;;;;;;;14.40;100.00;102339.53;5032179;28;20030;-81
2023/10/01 03:38:43;;;;;;;15.47;5.13;;;;;;;14.41;100.00;102333.22;5031509;28;20039;-81
2023/10/01 03:41:52;;;;;;;14.13;4.80;;;;;;;14.40;100.00;102331.50;5032336;28;20174;-82
2023/10/01 03:44:15;;;;;;;15.07;5.60;;;;;;;14.41;100.00;102319.84;5031004;28;20337;-81
2023/10/01 03:46:46;;;;;;;17.73;5.10;;;;;;;14.41;100.00;102330.53;5016193;28;20055;-81
2023/10/01 03:51:58;;;;;;;15.30;5.10;;;;;;;14.41;100.00;102327.03;5033749;28;20095;-80
2023/10/01 03:57:16;;;;;;;13.60;5.00;;;;;;;14.40;100.00;102328.00;5031218;28;20060;-80
2023/10/01 03:59:51;;;;;;;13.77;5.38;;;;;;;14.42;100.00;102336.75;5031648;28;20050;-80
2023/10/01 04:05:31;;;;;;;11.15;5.10;;;;;;;14.42;100.00;102323.34;4989336;28;20034;-80
2023/10/01 04:08:06;;;;;;;15.20;5.15;;;;;;;14.43;100.00;102319.72;4989694;28;20431;-80
2023/10/01 04:10:31;;;;;;;14.60;4.82;;;;;;;14.43;100.00;102325.06;4997559;28;20045;-80
2023/10/01 04:13:11;;;;;;;16.98;6.00;;;;;;;14.44;100.00;102330.28;5031144;28;20040;-80
2023/10/01 04:15:41;;;;;;;15.90;5.18;;;;;;;14.45;100.00;102333.81;5031388;28;20025;-81
2023/10/01 04:20:49;;;;;;;16.70;5.38;;;;;;;14.47;100.00;102326.50;5030827;28;20033;-80
2023/10/01 04:23:30;;;;;;;11.38;4.65;;;;;;;14.46;100.00;102328.34;5030932;28;20123;-82
2023/10/01 04:26:00;;;;;;;15.70;4.95;;;;;;;14.48;100.00;102332.72;5031073;28;20330;-81
2023/10/01 04:28:27;;;;;;;17.85;5.60;;;;;;;14.46;100.00;102327.47;5031166;28;20029;-81
2023/10/01 04:30:52;;;;;;;16.13;5.32;;;;;;;14.46;100.00;102330.16;5012860;28;20033;-81
2023/10/01 04:33:19;;;;;;;11.75;4.78;;;;;;;14.46;100.00;102332.84;5030938;28;20030;-81
2023/10/01 04:35:51;;;;;;;14.65;5.05;;;;;;;14.46;100.00;102325.69;5030427;28;20061;-81
2023/10/01 04:38:19;;;;;;;17.67;6.40;;;;;;;14.45;100.00;102329.31;5030822;28;20537;-81
2023/10/01 04:40:46;;;;;;;13.88;5.50;;;;;;;14.47;100.00;102331.88;5030830;28;20038;-80
2023/10/01 04:43:15;;;;;;;16.15;4.90;;;;;;;14.47;100.00;102329.19;5030792;28;20045;-82
2023/10/01 04:45:44;;;;;;;14.95;5.38;;;;;;;14.48;100.00;102338.94;5030571;28;20506;-81
2023/10/01 04:48:16;;;;;;;12.88;5.03;;;;;;;14.48;100.00;102338.94;5030741;28;20041;-81
2023/10/01 04:50:46;;;;;;;14.02;5.32;;;;;;;14.48;100.00;102332.72;5030671;28;20108;-80
2023/10/01 04:53:14;;;;;;;15.70;5.68;;;;;;;14.48;100.00;102332.72;5030450;28;20053;-81
2023/10/01 04:55:41;;;;;;;16.10;5.65;;;;;;;14.46;100.00;102328.34;5030285;28;20429;-81
2023/10/01 04:58:08;;;;;;;12.18;5.20;;;;;;;14.47;100.00;102329.19;5030287;28;20383;-80
2023/10/01 05:00:36;;;;;;;19.27;6.05;;;;;;;14.48;100.00;102322.00;5030789;28;20037;-80
2023/10/01 05:03:05;;;;;;;11.07;5.10;;;;;;;14.49;100.00;102321.88;5030434;28;20108;-80
2023/10/01 05:05:33;;;;;;;19.83;5.53;;;;;;;14.48;100.00;102316.63;5030276;28;20045;-80
2023/10/01 05:07:58;;;;;;;15.43;5.60;;;;;;;14.49;100.00;102323.72;5030515;28;20029;-81
2023/10/01 05:10:27;;;;;;;12.90;5.22;;;;;;;14.48;100.00;102325.53;5030519;28;20296;-81
2023/10/01 05:12:58;;;;;;;15.13;5.72;;;;;;;14.46;100.00;102328.34;5030772;28;20025;-80
2023/10/01 05:15:35;;;;;;;13.85;5.60;;;;;;;14.46;100.00;102336.38;5034210;28;20033;-81
2023/10/01 05:18:04;;;;;;;15.70;5.55;;;;;;;14.46;100.00;102341.75;5031563;28;20136;-83
2023/10/01 05:20:30;;;;;;;15.43;5.72;;;;;;;14.48;100.00;102352.31;5030336;28;20144;-81
2023/10/01 05:22:59;;;;;;;14.35;5.63;;;;;;;14.50;100.00;102342.31;5030331;28;20457;-80
2023/10/01 05:25:26;;;;;;;17.45;5.45;;;;;;;14.46;100.00;102333.72;5013057;28;20117;-80
2023/10/01 05:27:54;;;;;;;16.70;5.50;;;;;;;14.48;100.00;102340.75;5030667;28;20028;-81
2023/10/01 05:30:34;;;;;;;14.55;5.50;;;;;;;14.45;100.00;102340.03;5030335;28;20091;-81
2023/10/01 05:33:01;;;;;;;21.20;6.13;;;;;;;14.46;100.00;102346.22;5030416;28;20028;-81
2023/10/01 05:35:28;;;;;;;14.55;6.07;;;;;;;14.45;100.00;102344.53;5030097;28;20279;-81
2023/10/01 05:37:53;;;;;;;16.92;5.95;;;;;;;14.43;100.00;102341.13;5012583;28;20040;-80
2023/10/01 05:40:19;;;;;;;17.00;5.20;;;;;;;14.43;100.00;102341.97;5012662;28;20329;-81
2023/10/01 05:42:47;;;;;;;16.50;5.82;;;;;;;14.43;100.00;102351.84;5030039;28;20037;-81
2023/10/01 05:45:18;;;;;;;14.80;5.85;;;;;;;14.43;100.00;102344.66;5012865;28;20025;-81
2023/10/01 05:47:51;;;;;;;20.20;5.90;;;;;;;14.43;100.00;102347.31;5030428;28;20040;-80
2023/10/01 05:50:18;;;;;;;19.17;5.82;;;;;;;14.41;100.00;102335.91;5013395;28;20477;-80
2023/10/01 05:52:45;;;;;;;15.77;6.35;;;;;;;14.40;100.00;102342.22;5030120;28;20115;-80
2023/10/01 05:55:22;;;;;;;15.52;5.65;;;;;;;14.39;100.00;102340.53;5030264;28;20108;-80
2023/10/01 05:57:50;;;;;;;13.57;5.40;;;;;;;14.40;100.00;102342.22;5030436;28;20032;-80
2023/10/01 06:00:18;;;;;;;15.15;5.78;;;;;;;14.40;100.00;102338.72;5030422;28;20137;-80
2023/10/01 06:02:48;;;;;;;13.25;5.60;;;;;;;14.39;100.00;102334.31;5031106;28;20033;-79
2023/10/01 06:05:32;;;;;;;14.13;5.70;;;;;;;14.40;100.00;102336.03;5030414;28;20486;-80
2023/10/01 06:07:58;;;;;;;20.13;6.13;;;;;;;14.41;100.00;102346.63;5014606;28;20033;-80
2023/10/01 06:10:26;;;;;;;14.75;6.05;;;;;;;14.41;100.00;102345.78;5030197;28;20445;-80
2023/10/01 06:12:57;;;;;;;21.95;6.70;;;;;;;14.45;100.00;102349.88;4996206;28;20425;-80
2023/10/01 06:15:29;;;;;;;21.10;6.80;;;;;;;14.45;100.00;102345.38;5031422;28;20029;-81
2023/10/01 06:17:55;;;;;;;17.45;6.07;;;;;;;14.46;100.00;102347.09;5034027;28;20112;-81
2023/10/01 06:20:26;;;;;;;13.13;6.28;;;;;;;14.49;100.00;102348.66;5033290;28;20120;-80
2023/10/01 06:22:56;;;;;;;19.17;6.32;;;;;;;14.52;100.00;102351.06;5033743;28;20040;-80
2023/10/01 06:25:37;;;;;;;18.55;5.90;;;;;;;14.55;100.00;102353.50;5034563;28;20022;-80
2023/10/01 06:28:19;;;;;;;16.02;6.20;;;;;;;14.57;100.00;102353.34;5018037;28;20140;-80
2023/10/01 06:30:48;;;;;;;18.85;6.13;;;;;;;14.53;100.00;102344.75;5033222;28;20118;-81
2023/10/01 06:33:26;;;;;;;16.55;6.15;;;;;;;14.50;100.00;102346.84;5015973;28;20094;-80
2023/10/01 06:38:39;;;;;;;18.85;6.45;;;;;;;14.34;100.00;102337.38;5033586;28;20094;-80
2023/10/01 06:41:06;;;;;;;17.35;6.45;;;;;;;14.28;100.00;102341.41;5033436;28;20341;-81
2023/10/01 06:43:44;;;;;;;14.95;6.15;;;;;;;14.23;100.00;102342.78;5033288;28;20107;-80
2023/10/01 06:46:11;;;;;;;20.10;7.68;;;;;;;14.19;100.00;102344.03;5034573;28;20030;-81
2023/10/01 06:48:39;;;;;;;23.00;7.63;;;;;;;14.17;100.00;102352.19;5032895;28;20033;-80
2023/10/01 06:51:06;;;;;;;24.50;6.50;;;;;;;14.16;100.00;102338.91;5033198;28;20323;-80
2023/10/01 06:53:45;;;;;;;17.08;7.03;;;;;;;14.15;100.00;102345.25;5035972;28;20114;-80
2023/10/01 06:56:17;;;;;;;18.88;7.65;;;;;;;14.14;100.00;102346.19;5033314;28;20041;-80
2023/10/01 07:01:46;;;;;;;17.08;7.57;;;;;;;14.15;100.00;102355.94;5032960;28;20041;-80
2023/10/01 07:04:13;;;;;;;17.05;7.22;;;;;;;14.20;100.00;102348.41;5033093;28;20112;-80
2023/10/01 07:06:39;;;;;;;20.23;7.97;;;;;;;14.26;100.00;102353.25;5032904;28;20315;-81
2023/10/01 07:09:07;;;;;;;22.15;7.18;;;;;;;14.29;100.00;102353.84;5033320;28;20060;-81
2023/10/01 07:11:33;;;;;;;19.23;7.07;;;;;;;14.33;100.00;102361.59;5032730;28;20029;-81
2023/10/01 07:14:01;;;;;;;17.48;7.72;;;;;;;14.36;100.00;102367.56;5032466;28;20101;-82
2023/10/01 07:16:39;;;;;;;17.80;6.78;;;;;;;14.41;100.00;102367.19;5032735;28;20033;-81
2023/10/01 07:19:11;;;;;;;19.90;7.55;;;;;;;14.43;100.00;102368.75;5032530;28;20033;-80
2023/10/01 07:21:41;;;;;;;22.90;7.55;;;;;;;14.50;100.00;102368.25;5032848;28;20094;-81
2023/10/01 07:24:12;;;;;;;18.08;7.45;;;;;;;14.58;100.00;102376.50;5032340;28;20029;-80
2023/10/01 07:26:42;;;;;;;20.50;7.90;;;;;;;14.65;100.00;102374.19;5032530;28;20060;-81
2023/10/01 07:29:07;;;;;;;19.80;8.48;;;;;;;14.71;100.00;102366.50;5033235;28;20029;-80
2023/10/01 07:31:37;;;;;;;18.38;7.13;;;;;;;14.78;100.00;102365.00;5032551;28;20108;-80
2023/10/01 07:34:12;;;;;;;16.00;7.57;;;;;;;14.87;100.00;102360.69;5032489;28;20046;-83
2023/10/01 07:36:44;;;;;;;21.95;8.52;;;;;;;14.95;100.00;102355.50;5032907;28;20021;-85
2023/10/01 07:39:09;;;;;;;20.00;7.63;;;;;;;15.02;100.00;102357.66;5032929;28;20105;-83
2023/10/01 07:41:39;;;;;;;20.25;8.20;;;;;;;15.15;100.00;102351.13;5032737;28;20500;-83
2023/10/01 07:44:11;;;;;;;17.65;7.57;;;;;;;15.36;100.00;102355.63;5032206;28;20454;-84
2023/10/01 07:46:36;;;;;;;21.23;7.68;;;;;;;15.66;100.00;102356.59;5032893;28;20048;-83
2023/10/01 07:49:03;;;;;;;18.90;7.35;;;;;;;15.96;100.00;102361.09;5032752;28;20318;-86
2023/10/01 07:51:35;;;;;;;15.82;6.68;;;;;;;16.27;100.00;102354.78;5032241;28;20446;-83
2023/10/01 07:54:09;;;;;;;16.50;7.40;;;;;;;16.52;100.00;102359.59;5032307;28;20453;-83
2023/10/01 07:56:36;;;;;;;17.80;7.55;;;;;;;16.72;100.00;102349.69;5032335;28;20509;-85
2023/10/01 07:59:43;;;;;;;20.83;8.23;;;;;;;16.78;100.00;102352.78;5031709;28;20118;-84
2023/10/01 08:02:07;;;;;;;21.73;7.10;;;;;;;16.78;100.00;102348.28;5026437;28;20053;-79
2023/10/01 08:07:18;;;;;;;16.80;6.90;;;;;;;17.00;100.00;102360.56;5016012;28;20126;-83
2023/10/01 08:09:49;;;;;;;18.73;7.28;;;;;;;17.14;100.00;102355.72;5031455;28;20418;-83
2023/10/01 08:12:14;;;;;;;19.67;7.38;;;;;;;17.15;100.00;102360.13;5031335;28;20183;-81
2023/10/01 08:14:40;;;;;;;20.20;7.43;;;;;;;17.15;100.00;102352.88;5031443;28;20386;-79
2023/10/01 08:17:07;;;;;;;18.15;8.05;;;;;;;17.05;100.00;102352.94;5013567;28;20540;-82
2023/10/01 08:19:45;;;;;;;19.90;7.88;;;;;;;17.10;100.00;102358.72;5031340;28;20112;-79
2023/10/01 08:22:15;;;;;;;17.90;7.25;;;;;;;17.07;100.00;102348.25;5031853;28;20060;-83
2023/10/01 08:24:45;;;;;;;18.25;7.38;;;;;;;17.22;100.00;102353.16;5031083;28;20048;-81
2023/10/01 08:27:29;;;;;;;17.67;7.70;;;;;;;17.45;100.00;102367.09;5031051;28;20026;-81
2023/10/01 08:32:49;;;;;;;15.15;7.00;;;;;;;17.68;100.00;102359.50;5030465;28;20068;-84
2023/10/01 08:35:23;;;;;;;16.88;7.88;;;;;;;17.84;100.00;102360.69;5030737;28;20033;-82
2023/10/01 08:37:49;;;;;;;21.23;8.38;;;;;;;18.12;100.00;102356.16;5013767;28;20038;-76
2023/10/01 08:40:17;;;;;;;16.83;7.55;;;;;;;18.53;100.00;102356.56;5030522;28;20029;-76
2023/10/01 08:42:47;;;;;;;14.18;6.57;;;;;;;19.09;100.00;102353.66;5030507;28;20175;-78
2023/10/01 08:45:17;;;;;;;21.90;7.65;;;;;;;19.69;100.00;102359.03;5030548;28;20087;-77
2023/10/01 08:47:45;;;;;;;18.77;7.63;;;;;;;20.19;100.00;102359.22;5012551;28;20438;-77
2023/10/01 08:50:27;;;;;;;18.10;7.53;;;;;;;20.87;100.00;102355.38;5030407;28;20048;-77
2023/10/01 08:53:09;;;;;;;18.45;7.60;;;;;;;21.62;100.00;102351.47;5030362;28;20068;-77
2023/10/01 08:55:39;;;;;;;22.48;7.25;;;;;;;22.25;100.00;102358.78;5030435;28;20109;-76
2023/10/01 08:58:15;;;;;;;18.90;7.65;;;;;;;22.93;100.00;102354.34;5030229;28;20117;-77
2023/10/01 09:00:52;;;;;;;16.98;7.07;;;;;;;23.22;100.00;102352.72;5030367;28;20369;-75
2023/10/01 09:03:34;;;;;;;17.17;7.57;;;;;;;23.49;100.00;102359.34;5030259;28;20037;-75
2023/10/01 09:06:04;;;;;;;12.95;6.93;;;;;;;23.48;100.00;102354.94;5030669;28;20068;-76
2023/10/01 09:08:43;;;;;;;16.02;7.28;;;;;;;23.68;100.00;102357.09;5030545;28;20026;-76
2023/10/01 09:11:15;;;;;;;15.60;6.70;;;;;;;23.86;100.00;102359.44;5030130;28;20029;-76
2023/10/01 09:14:14;;;;;;;16.15;7.13;;;;;;;23.86;100.00;102354.00;5030658;28;20025;-74
2023/10/01 09:16:42;;;;;;;16.95;7.35;;;;;;;24.15;100.00;102357.66;5030581;28;20162;-76
2023/10/01 09:21:55;;;;;;;14.30;6.90;;;;;;;24.16;100.00;102352.03;5030711;28;20143;-78
2023/10/01 09:24:38;;;;;;;17.15;7.65;;;;;;;24.30;100.00;102350.28;5030379;28;20025;-75
2023/10/01 09:27:20;;;;;;;15.23;7.70;;;;;;;24.15;100.00;102363.09;5030666;28;20454;-76
2023/10/01 09:29:57;;;;;;;18.65;7.38;;;;;;;24.18;100.00;102360.81;5030551;28;20099;-77
2023/10/01 09:32:52;;;;;;;16.65;8.02;;;;;;;24.19;100.00;102354.34;5030332;28;20084;-75
2023/10/01 09:35:30;;;;;;;16.83;7.97;;;;;;;24.43;100.00;102360.44;5030401;28;20121;-76
2023/10/01 09:38:12;;;;;;;19.67;7.07;;;;;;;24.84;100.00;102364.38;5030637;28;20082;-76
2023/10/01 09:40:42;;;;;;;17.90;7.78;;;;;;;25.00;100.00;102355.91;5030192;28;20365;-74
2023/10/01 09:43:33;;;;;;;14.63;7.13;;;;;;;25.26;100.00;102357.97;5030481;28;20028;-76
2023/10/01 09:46:03;;;;;;;20.33;7.88;;;;;;;25.28;100.00;102349.59;5030465;28;20783;-75
2023/10/01 09:48:33;;;;;;;18.80;7.88;;;;;;;25.27;100.00;102356.06;5030813;28;20033;-77
2023/10/01 09:51:08;;;;;;;20.30;7.17;;;;;;;25.07;100.00;102348.63;5015156;28;20469;-75
2023/10/01 09:53:44;;;;;;;14.98;7.40;;;;;;;25.07;100.00;102355.97;5034316;28;20341;-75
2023/10/01 09:56:29;;;;;;;18.38;7.50;;;;;;;25.33;100.00;102349.84;5034069;28;20028;-75
2023/10/01 09:59:08;;;;;;;17.17;6.75;;;;;;;25.48;100.00;102349.72;5034202;28;20405;-74
2023/10/01 10:01:35;;;;;;;15.55;6.75;;;;;;;25.38;99.80;102349.25;5034153;28;20132;-76
2023/10/01 10:04:03;;;;;;;12.45;6.85;;;;;;;25.25;95.62;102355.44;5033680;28;20029;-74
2023/10/01 10:06:30;;;;;;;16.58;7.28;;;;;;;24.95;100.00;102353.78;5034045;28;20025;-78
2023/10/01 10:09:06;;;;;;;17.98;7.47;;;;;;;24.79;100.00;102346.75;5033937;28;20033;-78
2023/10/01 10:11:43;;;;;;;15.40;6.80;;;;;;;24.52;100.00;102340.22;5034453;28;20017;-78
2023/10/01 10:14:26;;;;;;;14.75;6.82;;;;;;;24.23;100.00;102331.19;5034307;28;20097;-80
2023/10/01 10:16:59;;;;;;;18.92;7.10;;;;;;;23.85;100.00;102325.09;5033925;28;20071;-80
2023/10/01 10:19:26;;;;;;;13.20;6.80;;;;;;;23.57;100.00;102315.78;5034004;28;20028;-73
2023/10/01 10:24:46;;;;;;;15.77;7.07;;;;;;;22.99;100.00;102326.47;5033489;28;20149;-74
2023/10/01 10:27:33;;;;;;;21.27;7.20;;;;;;;22.54;100.00;102328.22;5033517;28;20104;-72
2023/10/01 10:30:01;;;;;;;20.00;7.25;;;;;;;22.18;100.00;102323.41;5019642;28;20091;-71
2023/10/01 10:32:27;;;;;;;15.05;7.07;;;;;;;22.02;100.00;102325.19;5033320;28;20072;-71
2023/10/01 10:35:05;;;;;;;14.85;7.13;;;;;;;21.92;100.00;102321.88;5033075;28;20506;-71
2023/10/01 10:37:36;;;;;;;19.50;7.38;;;;;;;21.92;100.00;102334.59;5033310;28;20196;-71
2023/10/01 10:42:58;;;;;;;21.02;6.80;;;;;;;22.32;100.00;102335.38;5033266;28;20033;-72
2023/10/01 10:45:51;;;;;;;17.60;7.20;;;;;;;22.27;100.00;102326.91;5034041;28;20029;-71
2023/10/01 10:48:21;;;;;;;17.50;7.10;;;;;;;21.97;100.00;102318.63;5033053;28;20196;-70
2023/10/01 10:50:53;;;;;;;15.20;6.47;;;;;;;21.88;100.00;102325.94;5033046;28;20025;-70
2023/10/01 10:53:21;;;;;;;18.63;7.35;;;;;;;21.80;100.00;102324.13;5034954;28;20060;-70
2023/10/01 10:56:02;;;;;;;15.35;6.53;;;;;;;21.70;100.00;102328.09;5033002;28;20335;-70
2023/10/01 10:58:41;;;;;;;15.38;6.65;;;;;;;21.55;100.00;102328.84;5033207;28;20242;-74
2023/10/01 11:01:20;;;;;;;19.38;6.93;;;;;;;21.44;100.00;102318.38;5032396;28;20029;-70
2023/10/01 11:03:59;;;;;;;14.07;6.75;;;;;;;21.37;100.00;102323.63;5014659;28;20032;-71
2023/10/01 11:06:42;;;;;;;13.95;7.00;;;;;;;21.41;100.00;102321.44;5032435;28;20029;-71
2023/10/01 11:09:29;;;;;;;42.67;6.90;;;;;;;21.46;100.00;102322.56;5032778;28;20438;-71
2023/10/01 11:12:22;;;;;;;14.48;6.82;;;;;;;21.58;100.00;102311.41;5014544;28;20048;-71
2023/10/01 11:17:43;;;;;;;18.27;6.40;;;;;;;21.56;100.00;102316.16;5033926;28;20119;-72
2023/10/01 11:20:22;;;;;;;29.48;7.00;;;;;;;21.58;100.00;102306.81;5033295;28;20025;-73
2023/10/01 11:22:54;;;;;;;23.65;6.53;;;;;;;21.61;100.00;102316.47;5032643;28;20037;-74
2023/10/01 11:25:22;;;;;;;39.95;29.77;;;;;;;21.79;100.00;102318.91;5032688;28;20068;-75
2023/10/01 11:28:05;;;;;;;67.43;9.63;;;;;;;21.97;100.00;102314.03;5014513;28;20030;-73
2023/10/01 11:30:34;;;;;;;19.20;6.80;;;;;;;22.10;100.00;102318.03;5032430;28;20036;-73
2023/10/01 11:35:42;;;;;;;24.63;6.95;;;;;;;22.11;100.00;102312.44;5031920;28;20370;-76
2023/10/01 11:38:14;;;;;;;12.75;6.57;;;;;;;22.14;100.00;102313.97;5032186;28;20159;-73
2023/10/01 11:43:32;;;;;;;15.02;7.15;;;;;;;22.16;100.00;102311.91;5032713;28;20064;-73
2023/10/01 11:46:20;;;;;;;14.88;6.70;;;;;;;22.09;100.00;102317.19;5032206;28;20353;-73
2023/10/01 11:48:56;;;;;;;18.48;7.05;;;;;;;22.08;100.00;102304.69;5031983;28;20032;-74
2023/10/01 11:51:44;;;;;;;17.88;6.68;;;;;;;22.22;100.00;102310.34;5031699;28;20021;-74
2023/10/01 11:54:14;;;;;;;17.85;6.95;;;;;;;22.30;100.00;102302.13;5034065;28;20140;-73
2023/10/01 11:56:47;;;;;;;21.45;6.88;;;;;;;22.46;100.00;102309.31;5031673;28;20075;-77
2023/10/01 11:59:19;;;;;;;13.77;7.05;;;;;;;22.51;100.00;102305.03;5031822;28;20421;-74
2023/10/01 12:01:51;;;;;;;15.25;7.18;;;;;;;22.70;100.00;102297.41;5032110;28;20091;-74
2023/10/01 12:04:24;;;;;;;16.85;6.65;;;;;;;22.71;100.00;102290.97;5032045;28;20029;-74
2023/10/01 12:06:54;;;;;;;15.57;6.78;;;;;;;22.72;100.00;102300.75;5032434;28;20102;-72
2023/10/01 12:09:20;;;;;;;19.05;6.68;;;;;;;22.83;100.00;102289.47;5031867;28;20053;-76
2023/10/01 12:12:03;;;;;;;15.02;7.28;;;;;;;23.08;100.00;102289.22;5013342;28;20116;-75
2023/10/01 12:14:32;;;;;;;14.98;6.82;;;;;;;23.30;100.00;102292.88;5031209;28;20030;-75
2023/10/01 12:17:00;;;;;;;19.40;7.25;;;;;;;23.48;100.00;102289.75;5031681;28;20030;-74
2023/10/01 12:19:26;;;;;;;15.95;7.20;;;;;;;23.70;100.00;102293.34;5013790;28;20026;-77